createdAt,value
2017-12-28T00:00:51.006Z,36.00
2017-12-28T00:01:51.011Z,35.70
2017-12-28T00:02:51.043Z,35.80
2017-12-28T00:03:51.042Z,36.80
2017-12-28T00:04:51.051Z,34.10
2017-12-28T00:05:51.069Z,38.50
2017-12-28T00:06:51.069Z,36.80
2017-12-28T00:07:51.082Z,36.10
2017-12-28T00:08:51.102Z,37.70
2017-12-28T00:09:51.113Z,35.10
2017-12-28T00:10:51.123Z,36.90
2017-12-28T00:11:51.129Z,38.40
2017-12-28T00:12:51.144Z,36.60
2017-12-28T00:13:51.144Z,37.70
2017-12-28T00:14:51.169Z,39.30
2017-12-28T00:15:51.181Z,34.60
2017-12-28T00:16:51.187Z,38.30
2017-12-28T00:17:51.204Z,36.20
2017-12-28T00:18:51.207Z,37.60
2017-12-28T00:19:51.232Z,35.20
2017-12-28T00:20:51.234Z,34.60
2017-12-28T00:21:51.245Z,35.70
2017-12-28T00:22:51.259Z,36.70
2017-12-28T00:23:51.556Z,36.70
2017-12-28T00:24:51.266Z,34.90
2017-12-28T00:25:51.290Z,37.30
2017-12-28T00:26:51.295Z,37.10
2017-12-28T00:27:51.317Z,35.60
2017-12-28T00:28:51.325Z,38.10
2017-12-28T00:29:51.323Z,38.60
2017-12-28T00:30:51.349Z,38.10
2017-12-28T00:31:51.353Z,36.70
2017-12-28T00:32:51.363Z,38.00
2017-12-28T00:33:51.380Z,37.70
2017-12-28T00:34:51.380Z,38.40
2017-12-28T00:35:51.393Z,36.90
2017-12-28T00:36:51.414Z,37.80
2017-12-28T00:37:51.418Z,35.60
2017-12-28T00:38:51.437Z,36.80
2017-12-28T00:39:51.436Z,39.80
2017-12-28T00:40:51.452Z,37.30
2017-12-28T00:41:51.478Z,37.40
2017-12-28T00:42:51.476Z,39.70
2017-12-28T00:43:51.489Z,41.40
2017-12-28T00:44:51.498Z,40.30
2017-12-28T00:45:51.502Z,38.20
2017-12-28T00:46:51.535Z,35.00
2017-12-28T00:47:51.534Z,37.60
2017-12-28T00:48:51.542Z,37.80
2017-12-28T00:49:51.561Z,35.50
2017-12-28T00:50:51.560Z,35.90
2017-12-28T00:51:51.573Z,34.80
2017-12-28T00:52:51.612Z,35.40
2017-12-28T00:53:51.597Z,37.40
2017-12-28T00:54:51.612Z,37.90
2017-12-28T00:55:51.617Z,40.70
2017-12-28T00:56:51.637Z,35.50
2017-12-28T00:57:51.657Z,35.70
2017-12-28T00:58:51.655Z,36.70
2017-12-28T00:59:51.669Z,36.50
2017-12-28T01:00:51.677Z,34.10
2017-12-28T01:01:51.702Z,37.10
2017-12-28T01:02:51.714Z,38.40
2017-12-28T01:03:51.711Z,37.70
2017-12-28T01:04:51.720Z,41.60
2017-12-28T01:05:51.734Z,38.00
2017-12-28T01:06:51.739Z,37.80
2017-12-28T01:07:51.759Z,35.90
2017-12-28T01:08:51.768Z,35.20
2017-12-28T01:09:51.779Z,39.10
2017-12-28T01:10:51.798Z,38.90
2017-12-28T01:11:51.801Z,34.60
2017-12-28T01:12:51.805Z,36.10
2017-12-28T01:13:51.818Z,42.70
2017-12-28T01:14:51.842Z,36.80
2017-12-28T01:15:51.848Z,38.80
2017-12-28T01:16:51.864Z,37.90
2017-12-28T01:17:51.861Z,36.60
2017-12-28T01:18:51.882Z,37.00
2017-12-28T01:19:51.892Z,37.80
2017-12-28T01:20:51.900Z,36.40
2017-12-28T01:21:51.914Z,36.20
2017-12-28T01:22:51.920Z,35.10
2017-12-28T01:23:51.939Z,33.90
2017-12-28T01:24:51.948Z,32.10
2017-12-28T01:25:51.957Z,33.10
2017-12-28T01:26:51.970Z,32.60
2017-12-28T01:27:51.975Z,32.40
2017-12-28T01:28:51.991Z,36.10
2017-12-28T01:29:52.005Z,33.80
2017-12-28T01:30:52.016Z,32.90
2017-12-28T01:31:52.034Z,34.40
2017-12-28T01:32:52.037Z,30.90
2017-12-28T01:33:52.041Z,37.80
2017-12-28T01:34:52.055Z,31.70
2017-12-28T01:35:52.084Z,33.10
2017-12-28T01:36:52.080Z,33.60
2017-12-28T01:37:52.104Z,32.50
2017-12-28T01:38:52.104Z,35.20
2017-12-28T01:39:52.119Z,31.70
2017-12-28T01:40:52.133Z,34.10
2017-12-28T01:41:52.137Z,31.70
2017-12-28T01:42:52.150Z,33.00
2017-12-28T01:43:52.456Z,33.00
2017-12-28T01:44:52.171Z,33.20
2017-12-28T01:45:52.194Z,34.00
2017-12-28T01:46:52.196Z,33.10
2017-12-28T01:47:52.207Z,32.80
2017-12-28T01:48:52.216Z,35.20
2017-12-28T01:49:52.227Z,36.60
2017-12-28T01:50:52.247Z,36.10
2017-12-28T01:51:52.250Z,35.00
2017-12-28T01:52:52.260Z,33.40
2017-12-28T01:53:52.273Z,31.80
2017-12-28T01:54:52.282Z,33.50
2017-12-28T01:55:52.304Z,32.10
2017-12-28T01:56:52.324Z,33.50
2017-12-28T01:57:52.316Z,34.10
2017-12-28T01:58:52.330Z,34.20
2017-12-28T01:59:52.360Z,34.70
2017-12-28T02:00:52.356Z,32.30
2017-12-28T02:01:52.371Z,32.40
2017-12-28T02:02:52.384Z,36.30
2017-12-28T02:03:52.695Z,33.30
2017-12-28T02:04:52.414Z,35.40
2017-12-28T02:05:52.419Z,31.20
2017-12-28T02:06:52.433Z,34.10
2017-12-28T02:07:52.438Z,32.40
2017-12-28T02:08:52.447Z,35.70
2017-12-28T02:09:52.465Z,32.50
2017-12-28T02:10:52.470Z,36.90
2017-12-28T02:11:52.489Z,32.10
2017-12-28T02:12:52.492Z,34.60
2017-12-28T02:13:52.504Z,31.50
2017-12-28T02:14:52.531Z,34.40
2017-12-28T02:15:52.535Z,33.70
2017-12-28T02:16:52.536Z,31.20
2017-12-28T02:17:52.549Z,32.60
2017-12-28T02:18:52.877Z,31.10
2017-12-28T02:19:52.576Z,32.10
2017-12-28T02:20:52.584Z,34.80
2017-12-28T02:21:52.597Z,28.80
2017-12-28T02:22:52.634Z,29.30
2017-12-28T02:23:52.634Z,31.20
2017-12-28T02:24:52.643Z,31.60
2017-12-28T02:25:52.642Z,30.60
2017-12-28T02:26:52.672Z,30.30
2017-12-28T02:27:52.672Z,30.40
2017-12-28T02:28:52.686Z,30.60
2017-12-28T02:29:52.700Z,27.80
2017-12-28T02:30:52.710Z,29.70
2017-12-28T02:31:52.724Z,31.10
2017-12-28T02:32:52.733Z,30.70
2017-12-28T02:33:52.751Z,32.00
2017-12-28T02:34:52.753Z,31.10
2017-12-28T02:35:52.775Z,33.80
2017-12-28T02:36:52.783Z,29.80
2017-12-28T02:37:52.790Z,28.80
2017-12-28T02:38:52.814Z,30.90
2017-12-28T02:39:52.841Z,31.80
2017-12-28T02:40:52.829Z,29.60
2017-12-28T02:41:52.833Z,31.20
2017-12-28T02:42:52.859Z,26.30
2017-12-28T02:43:53.171Z,31.90
2017-12-28T02:44:52.879Z,29.90
2017-12-28T02:45:52.887Z,26.20
2017-12-28T02:46:52.902Z,25.80
2017-12-28T02:47:52.923Z,27.40
2017-12-28T02:48:52.929Z,27.60
2017-12-28T02:49:52.933Z,30.00
2017-12-28T02:50:52.960Z,29.70
2017-12-28T02:51:52.967Z,29.80
2017-12-28T02:52:52.969Z,29.30
2017-12-28T02:53:52.995Z,28.80
2017-12-28T02:54:52.999Z,29.00
2017-12-28T02:55:53.013Z,27.80
2017-12-28T02:56:53.028Z,25.50
2017-12-28T02:57:53.039Z,27.80
2017-12-28T02:58:53.058Z,28.00
2017-12-28T02:59:53.062Z,27.60
2017-12-28T03:00:53.088Z,29.10
2017-12-28T03:01:53.097Z,26.00
2017-12-28T03:02:53.115Z,29.40
2017-12-28T03:03:53.110Z,28.90
2017-12-28T03:04:53.130Z,27.00
2017-12-28T03:05:53.140Z,28.70
2017-12-28T03:06:53.148Z,32.00
2017-12-28T03:07:53.154Z,29.10
2017-12-28T03:08:53.480Z,29.20
2017-12-28T03:09:53.193Z,30.70
2017-12-28T03:10:53.191Z,30.60
2017-12-28T03:11:53.230Z,31.90
2017-12-28T03:12:53.226Z,29.00
2017-12-28T03:13:53.231Z,31.70
2017-12-28T03:14:53.244Z,30.50
2017-12-28T03:15:53.268Z,30.50
2017-12-28T03:16:53.292Z,29.50
2017-12-28T03:17:53.283Z,30.80
2017-12-28T03:18:53.289Z,27.50
2017-12-28T03:19:53.332Z,29.40
2017-12-28T03:20:53.327Z,28.70
2017-12-28T03:21:53.327Z,27.80
2017-12-28T03:22:53.359Z,29.00
2017-12-28T03:23:53.363Z,29.50
2017-12-28T03:24:53.372Z,29.20
2017-12-28T03:25:53.380Z,30.80
2017-12-28T03:26:53.403Z,29.50
2017-12-28T03:27:53.416Z,28.60
2017-12-28T03:28:53.425Z,25.70
2017-12-28T03:29:53.434Z,31.00
2017-12-28T03:30:53.454Z,26.40
2017-12-28T03:31:53.454Z,28.50
2017-12-28T03:32:53.462Z,28.90
2017-12-28T03:33:53.494Z,28.70
2017-12-28T03:34:53.497Z,30.80
2017-12-28T03:35:53.506Z,28.70
2017-12-28T03:36:53.526Z,27.20
2017-12-28T03:37:53.539Z,26.30
2017-12-28T03:38:53.551Z,27.40
2017-12-28T03:39:53.582Z,28.00
2017-12-28T03:40:53.577Z,27.30
2017-12-28T03:41:53.583Z,29.00
2017-12-28T03:42:53.595Z,28.90
2017-12-28T03:43:53.913Z,28.20
2017-12-28T03:44:53.626Z,27.90
2017-12-28T03:45:53.635Z,26.40
2017-12-28T03:46:53.641Z,27.80
2017-12-28T03:47:53.665Z,27.70
2017-12-28T03:48:53.667Z,27.30
2017-12-28T03:49:53.680Z,25.90
2017-12-28T03:50:53.704Z,27.50
2017-12-28T03:51:53.716Z,24.50
2017-12-28T03:52:53.726Z,27.60
2017-12-28T03:53:53.742Z,28.30
2017-12-28T03:54:53.756Z,28.80
2017-12-28T03:55:53.754Z,31.10
2017-12-28T03:56:53.769Z,27.70
2017-12-28T03:57:53.795Z,32.80
2017-12-28T03:58:53.793Z,31.40
2017-12-28T03:59:53.806Z,31.80
2017-12-28T04:00:53.826Z,26.50
2017-12-28T04:01:53.852Z,28.20
2017-12-28T04:02:53.846Z,28.10
2017-12-28T04:03:53.850Z,31.70
2017-12-28T04:04:53.877Z,29.20
2017-12-28T04:05:53.885Z,28.90
2017-12-28T04:06:53.890Z,29.90
2017-12-28T04:07:53.921Z,29.60
2017-12-28T04:08:53.924Z,32.50
2017-12-28T04:09:53.936Z,29.10
2017-12-28T04:10:53.948Z,29.60
2017-12-28T04:11:53.965Z,31.90
2017-12-28T04:12:53.967Z,32.90
2017-12-28T04:13:54.280Z,29.30
2017-12-28T04:14:53.987Z,32.90
2017-12-28T04:15:54.018Z,33.10
2017-12-28T04:16:54.021Z,28.90
2017-12-28T04:17:54.030Z,32.50
2017-12-28T04:18:54.358Z,32.00
2017-12-28T04:19:54.060Z,29.50
2017-12-28T04:20:54.070Z,35.40
2017-12-28T04:21:54.077Z,33.60
2017-12-28T04:22:54.103Z,34.90
2017-12-28T04:23:54.106Z,32.60
2017-12-28T04:24:54.116Z,31.40
2017-12-28T04:25:54.140Z,36.60
2017-12-28T04:26:54.142Z,33.40
2017-12-28T04:27:54.165Z,28.70
2017-12-28T04:28:54.163Z,32.30
2017-12-28T04:29:54.180Z,31.80
2017-12-28T04:30:54.195Z,32.40
2017-12-28T04:31:54.199Z,29.20
2017-12-28T04:32:54.219Z,28.30
2017-12-28T04:33:54.239Z,30.40
2017-12-28T04:34:54.238Z,33.20
2017-12-28T04:35:54.250Z,29.60
2017-12-28T04:36:54.273Z,31.70
2017-12-28T04:37:54.277Z,28.60
2017-12-28T04:38:54.297Z,33.00
2017-12-28T04:39:54.296Z,32.30
2017-12-28T04:40:54.322Z,29.80
2017-12-28T04:41:54.330Z,29.50
2017-12-28T04:42:54.340Z,29.70
2017-12-28T04:43:54.367Z,29.70
2017-12-28T04:44:54.369Z,28.80
2017-12-28T04:45:54.380Z,27.80
2017-12-28T04:46:54.395Z,29.00
2017-12-28T04:47:54.403Z,29.50
2017-12-28T04:48:54.713Z,29.60
2017-12-28T04:49:54.425Z,33.10
2017-12-28T04:50:54.450Z,28.30
2017-12-28T04:51:54.455Z,29.30
2017-12-28T04:52:54.471Z,30.40
2017-12-28T04:53:54.471Z,31.80
2017-12-28T04:54:54.503Z,25.70
2017-12-28T04:55:54.506Z,28.10
2017-12-28T04:56:54.509Z,29.50
2017-12-28T04:57:54.533Z,28.10
2017-12-28T04:58:54.838Z,29.30
2017-12-28T04:59:54.551Z,30.10
2017-12-28T05:00:54.580Z,27.10
2017-12-28T05:01:54.585Z,28.10
2017-12-28T05:02:54.595Z,28.50
2017-12-28T05:03:54.603Z,27.90
2017-12-28T05:04:54.621Z,31.60
2017-12-28T05:05:54.630Z,25.10
2017-12-28T05:06:54.641Z,30.70
2017-12-28T05:07:54.666Z,32.60
2017-12-28T05:08:54.676Z,29.00
2017-12-28T05:09:54.674Z,32.90
2017-12-28T05:10:54.696Z,28.50
2017-12-28T05:11:54.704Z,31.40
2017-12-28T05:12:54.716Z,28.40
2017-12-28T05:13:54.726Z,28.90
2017-12-28T05:14:54.743Z,31.90
2017-12-28T05:15:54.762Z,32.20
2017-12-28T05:16:54.765Z,31.30
2017-12-28T05:17:54.785Z,39.90
2017-12-28T05:18:54.796Z,32.90
2017-12-28T05:19:54.800Z,33.40
2017-12-28T05:20:54.809Z,29.80
2017-12-28T05:21:54.841Z,29.80
2017-12-28T05:22:54.839Z,35.00
2017-12-28T05:23:54.859Z,34.60
2017-12-28T05:24:54.874Z,34.40
2017-12-28T05:25:54.879Z,36.60
2017-12-28T05:26:54.897Z,38.00
2017-12-28T05:27:54.905Z,29.60
2017-12-28T05:28:54.917Z,32.30
2017-12-28T05:29:54.933Z,32.80
2017-12-28T05:30:54.953Z,37.20
2017-12-28T05:31:54.960Z,36.50
2017-12-28T05:32:54.982Z,35.10
2017-12-28T05:33:55.282Z,32.30
2017-12-28T05:34:55.019Z,35.90
2017-12-28T05:35:55.006Z,34.80
2017-12-28T05:36:55.015Z,37.10
2017-12-28T05:37:55.028Z,36.40
2017-12-28T05:38:55.045Z,34.20
2017-12-28T05:39:55.070Z,38.20
2017-12-28T05:40:55.068Z,34.60
2017-12-28T05:41:55.090Z,37.00
2017-12-28T05:42:55.097Z,36.50
2017-12-28T05:43:55.113Z,37.50
2017-12-28T05:44:55.111Z,33.90
2017-12-28T05:45:55.142Z,37.90
2017-12-28T05:46:55.141Z,39.60
2017-12-28T05:47:55.162Z,35.60
2017-12-28T05:48:55.174Z,36.80
2017-12-28T05:49:55.186Z,34.90
2017-12-28T05:50:55.192Z,38.00
2017-12-28T05:51:55.199Z,34.10
2017-12-28T05:52:55.226Z,37.30
2017-12-28T05:53:55.231Z,39.90
2017-12-28T05:54:55.244Z,36.60
2017-12-28T05:55:55.262Z,39.00
2017-12-28T05:56:55.270Z,36.00
2017-12-28T05:57:55.285Z,38.30
2017-12-28T05:58:55.607Z,37.70
2017-12-28T05:59:55.305Z,36.90
2017-12-28T06:00:55.322Z,32.90
2017-12-28T06:01:55.328Z,39.70
2017-12-28T06:02:55.352Z,36.40
2017-12-28T06:03:55.358Z,37.90
2017-12-28T06:04:55.367Z,34.70
2017-12-28T06:05:55.372Z,33.80
2017-12-28T06:06:55.404Z,33.30
2017-12-28T06:07:55.402Z,30.90
2017-12-28T06:08:55.411Z,32.00
2017-12-28T06:09:55.436Z,31.60
2017-12-28T06:10:55.442Z,32.80
2017-12-28T06:11:55.454Z,36.30
2017-12-28T06:12:55.464Z,33.80
2017-12-28T06:13:55.482Z,35.00
2017-12-28T06:14:55.493Z,36.10
2017-12-28T06:15:55.505Z,34.90
2017-12-28T06:16:55.528Z,32.50
2017-12-28T06:17:55.532Z,32.80
2017-12-28T06:18:55.838Z,32.20
2017-12-28T06:19:55.576Z,33.70
2017-12-28T06:20:55.571Z,35.90
2017-12-28T06:21:55.577Z,32.30
2017-12-28T06:22:55.602Z,30.70
2017-12-28T06:23:55.607Z,31.20
2017-12-28T06:24:55.635Z,34.40
2017-12-28T06:25:55.636Z,31.60
2017-12-28T06:26:55.645Z,33.10
2017-12-28T06:27:55.658Z,32.70
2017-12-28T06:28:55.687Z,31.40
2017-12-28T06:29:55.692Z,31.20
2017-12-28T06:30:55.699Z,31.10
2017-12-28T06:31:55.704Z,30.10
2017-12-28T06:32:55.719Z,31.40
2017-12-28T06:33:55.741Z,28.80
2017-12-28T06:34:55.747Z,29.50
2017-12-28T06:35:55.759Z,30.00
2017-12-28T06:36:55.772Z,34.30
2017-12-28T06:37:55.785Z,30.50
2017-12-28T06:38:55.789Z,30.40
2017-12-28T06:39:55.818Z,28.80
2017-12-28T06:40:55.825Z,29.80
2017-12-28T06:41:55.829Z,28.40
2017-12-28T06:42:55.856Z,30.10
2017-12-28T06:43:55.860Z,26.70
2017-12-28T06:44:55.869Z,28.30
2017-12-28T06:45:55.882Z,24.90
2017-12-28T06:46:55.906Z,28.50
2017-12-28T06:47:55.912Z,31.20
2017-12-28T06:48:55.927Z,29.50
2017-12-28T06:49:55.939Z,28.10
2017-12-28T06:50:55.950Z,29.10
2017-12-28T06:51:55.962Z,31.10
2017-12-28T06:52:55.977Z,30.40
2017-12-28T06:53:55.990Z,28.80
2017-12-28T06:54:55.995Z,29.30
2017-12-28T06:55:56.016Z,29.60
2017-12-28T06:56:56.036Z,28.40
2017-12-28T06:57:56.040Z,30.80
2017-12-28T06:58:56.047Z,29.10
2017-12-28T06:59:56.064Z,28.40
2017-12-28T07:00:56.081Z,29.70
2017-12-28T07:01:56.092Z,26.00
2017-12-28T07:02:56.104Z,25.90
2017-12-28T07:03:56.417Z,24.80
2017-12-28T07:04:56.138Z,26.50
2017-12-28T07:05:56.142Z,27.70
2017-12-28T07:06:56.157Z,25.70
2017-12-28T07:07:56.160Z,25.00
2017-12-28T07:08:56.177Z,26.20
2017-12-28T07:09:56.196Z,27.30
2017-12-28T07:10:56.206Z,26.10
2017-12-28T07:11:56.220Z,26.40
2017-12-28T07:12:56.240Z,27.80
2017-12-28T07:13:56.247Z,29.80
2017-12-28T07:14:56.257Z,25.30
2017-12-28T07:15:56.270Z,25.30
2017-12-28T07:16:56.285Z,26.40
2017-12-28T07:17:56.298Z,27.40
2017-12-28T07:18:56.312Z,27.50
2017-12-28T07:19:56.322Z,27.80
2017-12-28T07:20:56.334Z,26.20
2017-12-28T07:21:56.336Z,25.70
2017-12-28T07:22:56.366Z,26.00
2017-12-28T07:23:56.665Z,29.00
2017-12-28T07:24:56.374Z,24.50
2017-12-28T07:25:56.406Z,28.00
2017-12-28T07:26:56.407Z,26.00
2017-12-28T07:27:56.417Z,27.10
2017-12-28T07:28:56.446Z,27.70
2017-12-28T07:29:56.450Z,26.40
2017-12-28T07:30:56.465Z,25.10
2017-12-28T07:31:56.473Z,28.30
2017-12-28T07:32:56.489Z,27.70
2017-12-28T07:33:56.496Z,25.30
2017-12-28T07:34:56.513Z,27.60
2017-12-28T07:35:56.527Z,25.30
2017-12-28T07:36:56.536Z,26.50
2017-12-28T07:37:56.559Z,27.40
2017-12-28T07:38:56.566Z,30.10
2017-12-28T07:39:56.570Z,28.10
2017-12-28T07:40:56.579Z,28.50
2017-12-28T07:41:56.611Z,30.70
2017-12-28T07:42:56.616Z,27.20
2017-12-28T07:43:56.624Z,30.80
2017-12-28T07:44:56.644Z,27.50
2017-12-28T07:45:56.667Z,25.10
2017-12-28T07:46:56.661Z,28.70
2017-12-28T07:47:56.679Z,28.60
2017-12-28T07:48:56.988Z,24.20
2017-12-28T07:49:56.706Z,26.40
2017-12-28T07:50:56.718Z,29.40
2017-12-28T07:51:56.738Z,27.80
2017-12-28T07:52:56.740Z,28.90
2017-12-28T07:53:56.764Z,26.90
2017-12-28T07:54:56.777Z,27.50
2017-12-28T07:55:56.781Z,31.50
2017-12-28T07:56:56.796Z,28.90
2017-12-28T07:57:56.810Z,28.60
2017-12-28T07:58:56.822Z,26.50
2017-12-28T07:59:56.840Z,25.20
2017-12-28T08:00:56.847Z,24.80
2017-12-28T08:01:56.853Z,25.90
2017-12-28T08:02:56.889Z,25.50
2017-12-28T08:03:57.184Z,24.30
2017-12-28T08:04:56.899Z,25.40
2017-12-28T08:05:56.925Z,24.50
2017-12-28T08:06:56.928Z,27.30
2017-12-28T08:07:56.954Z,25.00
2017-12-28T08:08:56.946Z,22.30
2017-12-28T08:09:56.973Z,21.80
2017-12-28T08:10:56.975Z,21.30
2017-12-28T08:11:56.980Z,24.00
2017-12-28T08:12:57.000Z,23.80
2017-12-28T08:13:57.021Z,24.50
2017-12-28T08:14:57.019Z,23.60
2017-12-28T08:15:57.053Z,21.40
2017-12-28T08:16:57.052Z,23.20
2017-12-28T08:17:57.088Z,23.60
2017-12-28T08:18:57.083Z,20.10
2017-12-28T08:19:57.089Z,21.40
2017-12-28T08:20:57.098Z,22.70
2017-12-28T08:21:57.147Z,23.50
2017-12-28T08:22:57.128Z,22.20
2017-12-28T08:23:57.441Z,20.60
2017-12-28T08:24:57.169Z,18.20
2017-12-28T08:25:57.167Z,19.00
2017-12-28T08:26:57.179Z,20.80
2017-12-28T08:27:57.196Z,21.10
2017-12-28T08:28:57.207Z,20.00
2017-12-28T08:29:57.220Z,20.80
2017-12-28T08:30:57.245Z,21.90
2017-12-28T08:31:57.249Z,18.10
2017-12-28T08:32:57.257Z,18.10
2017-12-28T08:33:57.284Z,17.20
2017-12-28T08:34:57.288Z,17.90
2017-12-28T08:35:57.306Z,20.60
2017-12-28T08:36:57.315Z,17.20
2017-12-28T08:37:57.334Z,17.50
2017-12-28T08:38:57.338Z,17.50
2017-12-28T08:39:57.365Z,20.60
2017-12-28T08:40:57.367Z,18.30
2017-12-28T08:41:57.372Z,18.50
2017-12-28T08:42:57.392Z,18.10
2017-12-28T08:43:57.413Z,17.00
2017-12-28T08:44:57.421Z,18.90
2017-12-28T08:45:57.432Z,17.90
2017-12-28T08:46:57.445Z,19.80
2017-12-28T08:47:57.458Z,16.40
2017-12-28T08:48:57.478Z,17.70
2017-12-28T08:49:57.484Z,16.90
2017-12-28T08:50:57.491Z,16.60
2017-12-28T08:51:57.514Z,18.40
2017-12-28T08:52:57.523Z,16.60
2017-12-28T08:53:57.546Z,16.10
2017-12-28T08:54:57.554Z,17.50
2017-12-28T08:55:57.564Z,18.70
2017-12-28T08:56:57.587Z,18.60
2017-12-28T08:57:57.612Z,16.90
2017-12-28T08:58:57.598Z,18.10
2017-12-28T08:59:57.624Z,16.60
2017-12-28T09:00:57.639Z,18.40
2017-12-28T09:01:57.637Z,17.70
2017-12-28T09:02:57.671Z,18.50
2017-12-28T09:03:57.967Z,16.30
2017-12-28T09:04:57.676Z,17.20
2017-12-28T09:05:57.701Z,16.20
2017-12-28T09:06:57.707Z,16.40
2017-12-28T09:07:57.737Z,16.80
2017-12-28T09:08:57.740Z,18.60
2017-12-28T09:09:57.753Z,18.30
2017-12-28T09:10:57.770Z,17.20
2017-12-28T09:11:57.782Z,17.90
2017-12-28T09:12:57.790Z,16.10
2017-12-28T09:13:57.816Z,19.00
2017-12-28T09:14:57.816Z,16.10
2017-12-28T09:15:57.829Z,15.70
2017-12-28T09:16:57.848Z,16.50
2017-12-28T09:17:57.861Z,15.70
2017-12-28T09:18:57.874Z,17.10
2017-12-28T09:19:57.896Z,17.40
2017-12-28T09:20:57.894Z,19.40
2017-12-28T09:21:57.913Z,18.50
2017-12-28T09:22:57.924Z,15.80
2017-12-28T09:23:57.937Z,19.20
2017-12-28T09:24:57.964Z,15.00
2017-12-28T09:25:57.968Z,17.40
2017-12-28T09:26:57.975Z,14.80
2017-12-28T09:27:57.999Z,18.60
2017-12-28T09:28:58.021Z,15.70
2017-12-28T09:29:58.023Z,17.90
2017-12-28T09:30:58.038Z,16.90
2017-12-28T09:31:58.044Z,16.80
2017-12-28T09:32:58.056Z,14.50
2017-12-28T09:33:58.072Z,18.20
2017-12-28T09:34:58.085Z,15.30
2017-12-28T09:35:58.101Z,14.20
2017-12-28T09:36:58.117Z,15.40
2017-12-28T09:37:58.124Z,16.70
2017-12-28T09:38:58.448Z,14.60
2017-12-28T09:39:58.161Z,14.10
2017-12-28T09:40:58.170Z,13.80
2017-12-28T09:41:58.180Z,14.20
2017-12-28T09:42:58.195Z,12.70
2017-12-28T09:43:58.217Z,14.40
2017-12-28T09:44:58.218Z,13.30
2017-12-28T09:45:58.239Z,14.30
2017-12-28T09:46:58.257Z,12.60
2017-12-28T09:47:58.263Z,14.10
2017-12-28T09:48:58.290Z,13.80
2017-12-28T09:49:58.289Z,12.50
2017-12-28T09:50:58.307Z,13.10
2017-12-28T09:51:58.318Z,11.70
2017-12-28T09:52:58.328Z,14.70
2017-12-28T09:53:58.359Z,13.70
2017-12-28T09:54:58.365Z,13.40
2017-12-28T09:55:58.377Z,13.10
2017-12-28T09:56:58.399Z,11.10
2017-12-28T09:57:58.398Z,11.00
2017-12-28T09:58:58.429Z,11.20
2017-12-28T09:59:58.434Z,10.10
2017-12-28T10:00:58.455Z,10.40
2017-12-28T10:01:58.469Z,11.40
2017-12-28T10:02:58.466Z,11.90
2017-12-28T10:03:58.492Z,10.80
2017-12-28T10:04:58.500Z,11.30
2017-12-28T10:05:58.505Z,11.60
2017-12-28T10:06:58.533Z,11.50
2017-12-28T10:07:58.536Z,13.00
2017-12-28T10:08:58.563Z,11.60
2017-12-28T10:09:58.583Z,9.50
2017-12-28T10:10:58.576Z,11.90
2017-12-28T10:11:58.601Z,10.80
2017-12-28T10:12:58.616Z,8.80
2017-12-28T10:13:58.627Z,11.40
2017-12-28T10:14:58.639Z,10.30
2017-12-28T10:15:58.645Z,9.20
2017-12-28T10:16:58.666Z,10.50
2017-12-28T10:17:58.680Z,10.40
2017-12-28T10:18:58.696Z,8.60
2017-12-28T10:19:58.716Z,9.70
2017-12-28T10:20:58.737Z,7.70
2017-12-28T10:21:58.735Z,9.30
2017-12-28T10:22:58.750Z,8.30
2017-12-28T10:23:59.072Z,8.50
2017-12-28T10:24:58.775Z,9.80
2017-12-28T10:25:58.801Z,9.40
2017-12-28T10:26:58.804Z,8.80
2017-12-28T10:27:58.830Z,11.70
2017-12-28T10:28:58.839Z,9.10
2017-12-28T10:29:58.845Z,12.90
2017-12-28T10:30:58.877Z,7.90
2017-12-28T10:31:58.874Z,8.10
2017-12-28T10:32:58.895Z,7.60
2017-12-28T10:33:58.916Z,6.90
2017-12-28T10:34:58.920Z,8.00
2017-12-28T10:35:58.939Z,7.70
2017-12-28T10:36:58.951Z,6.00
2017-12-28T10:37:58.965Z,9.10
2017-12-28T10:38:58.985Z,7.20
2017-12-28T10:39:58.995Z,6.80
2017-12-28T10:40:59.011Z,6.10
2017-12-28T10:41:59.018Z,7.30
2017-12-28T10:42:59.041Z,6.60
2017-12-28T10:43:59.048Z,6.60
2017-12-28T10:44:59.069Z,5.50
2017-12-28T10:45:59.075Z,8.10
2017-12-28T10:46:59.089Z,7.30
2017-12-28T10:47:59.103Z,5.60
2017-12-28T10:48:59.119Z,7.80
2017-12-28T10:49:59.146Z,9.50
2017-12-28T10:50:59.147Z,6.50
2017-12-28T10:51:59.166Z,5.90
2017-12-28T10:52:59.174Z,5.60
2017-12-28T10:53:59.187Z,6.30
2017-12-28T10:54:59.204Z,8.60
2017-12-28T10:55:59.216Z,6.30
2017-12-28T10:56:59.237Z,5.60
2017-12-28T10:57:59.243Z,6.40
2017-12-28T10:58:59.263Z,7.50
2017-12-28T10:59:59.278Z,7.70
2017-12-28T11:00:59.283Z,7.50
2017-12-28T11:01:59.307Z,5.80
2017-12-28T11:02:59.320Z,10.10
2017-12-28T11:03:59.338Z,8.70
2017-12-28T11:04:59.354Z,6.80
2017-12-28T11:05:59.351Z,6.10
2017-12-28T11:06:59.384Z,6.40
2017-12-28T11:07:59.388Z,7.50
2017-12-28T11:08:59.448Z,4.00
2017-12-28T11:09:59.416Z,8.80
2017-12-28T11:10:59.427Z,5.60
2017-12-28T11:11:59.447Z,7.00
2017-12-28T11:12:59.456Z,9.60
2017-12-28T11:13:59.473Z,6.90
2017-12-28T11:14:59.492Z,8.10
2017-12-28T11:15:59.498Z,7.30
2017-12-28T11:16:59.513Z,6.00
2017-12-28T11:17:59.525Z,6.20
2017-12-28T11:18:59.542Z,8.40
2017-12-28T11:19:59.560Z,8.30
2017-12-28T11:20:59.564Z,10.40
2017-12-28T11:21:59.582Z,6.60
2017-12-28T11:22:59.594Z,7.10
2017-12-28T11:23:59.618Z,7.70
2017-12-28T11:24:59.626Z,7.10
2017-12-28T11:25:59.647Z,7.50
2017-12-28T11:26:59.650Z,7.50
2017-12-28T11:27:59.664Z,6.30
2017-12-28T11:28:59.696Z,6.30
2017-12-28T11:29:59.690Z,7.10
2017-12-28T11:30:59.715Z,9.40
2017-12-28T11:31:59.720Z,8.30
2017-12-28T11:32:59.730Z,9.90
2017-12-28T11:33:59.754Z,4.40
2017-12-28T11:34:59.785Z,4.40
2017-12-28T11:35:59.792Z,11.10
2017-12-28T11:36:59.800Z,6.60
2017-12-28T11:37:59.818Z,7.80
2017-12-28T11:38:59.832Z,6.20
2017-12-28T11:39:59.831Z,4.60
2017-12-28T11:40:59.857Z,8.80
2017-12-28T11:41:59.862Z,4.70
2017-12-28T11:42:59.887Z,7.10
2017-12-28T11:44:00.194Z,7.70
2017-12-28T11:44:59.914Z,6.00
2017-12-28T11:45:59.919Z,8.80
2017-12-28T11:46:59.940Z,7.10
2017-12-28T11:47:59.949Z,7.50
2017-12-28T11:48:59.959Z,5.50
2017-12-28T11:49:59.992Z,9.40
2017-12-28T11:50:59.996Z,9.00
2017-12-28T11:52:00.030Z,7.90
2017-12-28T11:53:00.034Z,7.30
2017-12-28T11:54:00.031Z,9.40
2017-12-28T11:55:00.061Z,7.70
2017-12-28T11:56:00.060Z,6.00
2017-12-28T11:57:00.087Z,7.00
2017-12-28T11:58:00.093Z,6.10
2017-12-28T11:59:00.405Z,6.40
2017-12-28T12:00:00.126Z,6.50
2017-12-28T12:01:00.135Z,8.80
2017-12-28T12:02:00.150Z,4.80
2017-12-28T12:03:00.169Z,6.60
2017-12-28T12:04:00.179Z,9.20
2017-12-28T12:05:00.195Z,7.30
2017-12-28T12:06:00.209Z,11.30
2017-12-28T12:07:00.225Z,5.20
2017-12-28T12:08:00.231Z,9.00
2017-12-28T12:09:00.253Z,10.60
2017-12-28T12:10:00.257Z,8.60
2017-12-28T12:11:00.272Z,9.20
2017-12-28T12:12:00.288Z,8.90
2017-12-28T12:13:00.305Z,8.70
2017-12-28T12:14:00.323Z,8.10
2017-12-28T12:15:00.333Z,6.90
2017-12-28T12:16:00.352Z,7.90
2017-12-28T12:17:00.369Z,9.60
2017-12-28T12:18:00.374Z,5.80
2017-12-28T12:19:00.393Z,7.90
2017-12-28T12:20:00.406Z,6.60
2017-12-28T12:21:00.418Z,8.30
2017-12-28T12:22:00.432Z,7.00
2017-12-28T12:23:00.437Z,9.80
2017-12-28T12:24:00.474Z,10.10
2017-12-28T12:25:00.476Z,10.60
2017-12-28T12:26:00.487Z,9.00
2017-12-28T12:27:00.500Z,7.20
2017-12-28T12:28:00.518Z,9.00
2017-12-28T12:29:00.527Z,9.10
2017-12-28T12:30:00.550Z,8.30
2017-12-28T12:31:00.558Z,7.10
2017-12-28T12:32:00.570Z,8.10
2017-12-28T12:33:00.594Z,7.10
2017-12-28T12:34:00.597Z,7.70
2017-12-28T12:35:00.628Z,6.90
2017-12-28T12:36:00.633Z,8.40
2017-12-28T12:37:00.641Z,6.70
2017-12-28T12:38:00.671Z,4.70
2017-12-28T12:39:00.665Z,6.90
2017-12-28T12:40:00.692Z,8.20
2017-12-28T12:41:00.701Z,8.40
2017-12-28T12:42:00.704Z,7.70
2017-12-28T12:43:00.730Z,7.50
2017-12-28T12:44:00.735Z,7.90
2017-12-28T12:45:00.757Z,9.00
2017-12-28T12:46:00.769Z,6.10
2017-12-28T12:47:00.782Z,7.50
2017-12-28T12:48:00.800Z,8.70
2017-12-28T12:49:00.815Z,9.60
2017-12-28T12:50:00.825Z,5.90
2017-12-28T12:51:00.845Z,9.00
2017-12-28T12:52:00.845Z,5.70
2017-12-28T12:53:00.870Z,6.80
2017-12-28T12:54:00.902Z,6.30
2017-12-28T12:55:00.896Z,11.20
2017-12-28T12:56:00.908Z,11.50
2017-12-28T12:57:00.943Z,10.40
2017-12-28T12:58:00.936Z,7.80